createdAt,value
2018-08-06T00:01:14.559Z,27.49
2018-08-06T00:03:43.839Z,27.48
2018-08-06T00:06:13.075Z,27.40
2018-08-06T00:08:42.299Z,27.42
2018-08-06T00:11:12.167Z,27.28
2018-08-06T00:13:41.138Z,27.27
2018-08-06T00:16:10.419Z,27.35
2018-08-06T00:18:39.640Z,27.42
2018-08-06T00:21:08.331Z,27.28
2018-08-06T00:23:39.006Z,27.26
2018-08-06T00:26:07.901Z,27.12
2018-08-06T00:28:37.721Z,27.12
2018-08-06T00:31:06.674Z,27.19
2018-08-06T00:33:36.134Z,27.03
2018-08-06T00:36:06.028Z,27.05
2018-08-06T00:38:34.847Z,26.95
2018-08-06T00:41:03.615Z,26.97
2018-08-06T00:43:33.274Z,26.96
2018-08-06T00:46:02.367Z,26.87
2018-08-06T00:48:31.737Z,26.83
2018-08-06T00:51:00.515Z,26.85
2018-08-06T00:53:29.570Z,26.85
2018-08-06T00:55:58.595Z,26.83
2018-08-06T00:58:28.129Z,26.79
2018-08-06T01:00:56.956Z,26.73
2018-08-06T01:03:25.823Z,26.71
2018-08-06T01:05:54.897Z,26.65
2018-08-06T01:08:24.162Z,26.73
2018-08-06T01:10:53.316Z,26.67
2018-08-06T01:13:22.184Z,26.57
2018-08-06T01:15:51.230Z,26.55
2018-08-06T01:18:20.197Z,26.51
2018-08-06T01:20:49.088Z,26.57
2018-08-06T01:23:17.951Z,26.44
2018-08-06T01:25:47.670Z,26.41
2018-08-06T01:28:16.745Z,26.33
2018-08-06T01:30:45.637Z,26.24
2018-08-06T01:33:14.310Z,26.22
2018-08-06T01:35:43.273Z,26.14
2018-08-06T01:38:12.814Z,26.14
2018-08-06T01:40:41.559Z,26.24
2018-08-06T01:43:11.065Z,26.23
2018-08-06T01:45:40.140Z,26.14
2018-08-06T01:48:09.056Z,26.20
2018-08-06T01:50:38.184Z,26.19
2018-08-06T01:53:07.051Z,26.23
2018-08-06T01:55:36.028Z,26.29
2018-08-06T01:58:04.984Z,26.32
2018-08-06T02:00:34.079Z,26.26
2018-08-06T02:03:02.872Z,26.30
2018-08-06T02:05:31.970Z,26.09
2018-08-06T02:08:01.348Z,26.16
2018-08-06T02:10:30.381Z,26.06
2018-08-06T02:13:00.074Z,26.08
2018-08-06T02:15:29.192Z,26.02
2018-08-06T02:17:58.619Z,26.00
2018-08-06T02:20:27.546Z,25.92
2018-08-06T02:22:56.793Z,25.97
2018-08-06T02:25:26.671Z,25.92
2018-08-06T02:27:55.800Z,25.92
2018-08-06T02:30:24.877Z,25.85
2018-08-06T02:32:53.888Z,25.76
2018-08-06T02:35:22.663Z,25.69
2018-08-06T02:37:51.523Z,25.71
2018-08-06T02:40:21.668Z,25.71
2018-08-06T02:42:50.492Z,25.72
2018-08-06T02:45:19.734Z,25.77
2018-08-06T02:47:48.765Z,25.70
2018-08-06T02:50:17.631Z,25.65
2018-08-06T02:52:46.712Z,25.62
2018-08-06T02:55:16.464Z,25.50
2018-08-06T02:57:45.436Z,25.50
2018-08-06T03:00:16.746Z,25.50
2018-08-06T03:02:46.849Z,25.45
2018-08-06T03:05:17.008Z,25.41
2018-08-06T03:07:46.411Z,25.41
2018-08-06T03:10:16.314Z,25.43
2018-08-06T03:12:46.171Z,25.45
2018-08-06T03:15:15.467Z,25.42
2018-08-06T03:17:44.730Z,25.32
2018-08-06T03:20:14.812Z,25.32
2018-08-06T03:22:43.805Z,25.31
2018-08-06T03:25:14.936Z,25.42
2018-08-06T03:27:44.920Z,25.36
2018-08-06T03:30:15.531Z,25.27
2018-08-06T03:32:45.735Z,25.22
2018-08-06T03:35:15.504Z,25.13
2018-08-06T03:37:45.187Z,25.21
2018-08-06T03:40:14.157Z,25.24
2018-08-06T03:42:44.052Z,25.10
2018-08-06T03:45:13.405Z,25.03
2018-08-06T03:47:43.222Z,24.86
2018-08-06T03:50:12.969Z,24.86
2018-08-06T03:52:42.031Z,24.98
2018-08-06T03:55:11.721Z,25.01
2018-08-06T03:57:41.525Z,25.00
2018-08-06T04:00:12.418Z,24.98
2018-08-06T04:02:41.975Z,24.90
2018-08-06T04:05:15.060Z,24.93
2018-08-06T04:07:44.563Z,24.87
2018-08-06T04:10:15.541Z,24.88
2018-08-06T04:12:44.502Z,24.93
2018-08-06T04:15:13.813Z,25.00
2018-08-06T04:17:43.316Z,24.90
2018-08-06T04:20:13.681Z,24.99
2018-08-06T04:22:43.536Z,24.93
2018-08-06T04:25:12.532Z,25.01
2018-08-06T04:27:41.465Z,25.05
2018-08-06T04:30:12.591Z,25.12
2018-08-06T04:32:41.737Z,25.13
2018-08-06T04:35:10.723Z,25.04
2018-08-06T04:37:39.735Z,25.07
2018-08-06T04:40:10.057Z,25.14
2018-08-06T04:42:39.197Z,25.12
2018-08-06T04:45:08.901Z,25.08
2018-08-06T04:47:38.288Z,25.11
2018-08-06T04:50:08.549Z,25.08
2018-08-06T04:52:37.667Z,25.16
2018-08-06T04:55:10.259Z,25.12
2018-08-06T04:57:39.794Z,25.10
2018-08-06T05:00:11.690Z,25.16
2018-08-06T05:02:40.978Z,25.23
2018-08-06T05:05:10.975Z,25.39
2018-08-06T05:07:39.933Z,25.54
2018-08-06T05:10:09.321Z,25.64
2018-08-06T05:12:38.745Z,25.71
2018-08-06T05:15:07.893Z,25.66
2018-08-06T05:17:37.321Z,25.93
2018-08-06T05:20:06.645Z,25.89
2018-08-06T05:22:35.859Z,26.10
2018-08-06T05:25:04.895Z,26.22
2018-08-06T05:27:34.378Z,26.30
2018-08-06T05:30:03.150Z,26.36
2018-08-06T05:32:32.068Z,26.52
2018-08-06T05:35:01.370Z,26.43
2018-08-06T05:37:30.522Z,26.80
2018-08-06T05:39:59.378Z,26.91
2018-08-06T05:42:28.333Z,27.03
2018-08-06T05:44:56.935Z,26.19
2018-08-06T05:47:25.964Z,26.52
2018-08-06T05:49:55.150Z,26.93
2018-08-06T05:52:24.139Z,27.13
2018-08-06T05:54:53.414Z,27.38
2018-08-06T05:57:22.573Z,27.57
2018-08-06T05:59:51.787Z,27.62
2018-08-06T06:02:20.664Z,27.56
2018-08-06T06:04:50.154Z,27.62
2018-08-06T06:07:19.301Z,27.87
2018-08-06T06:09:48.754Z,28.00
2018-08-06T06:12:17.846Z,27.87
2018-08-06T06:14:47.225Z,28.27
2018-08-06T06:17:16.102Z,28.08
2018-08-06T06:19:45.471Z,28.15
2018-08-06T06:22:14.445Z,28.16
2018-08-06T06:24:43.791Z,28.52
2018-08-06T06:27:12.919Z,28.40
2018-08-06T06:29:42.266Z,28.59
2018-08-06T06:32:11.391Z,28.63
2018-08-06T06:34:40.382Z,28.64
2018-08-06T06:37:09.444Z,28.98
2018-08-06T06:39:38.787Z,29.32
2018-08-06T06:42:08.235Z,29.47
2018-08-06T06:44:37.257Z,29.42
2018-08-06T06:47:06.572Z,29.52
2018-08-06T06:49:35.250Z,29.61
2018-08-06T06:52:04.349Z,29.59
2018-08-06T06:54:33.309Z,29.74
2018-08-06T06:57:02.873Z,29.84
2018-08-06T06:59:32.052Z,29.74
2018-08-06T07:02:00.799Z,29.92
2018-08-06T07:04:29.781Z,30.04
2018-08-06T07:06:58.804Z,30.30
2018-08-06T07:09:27.654Z,30.44
2018-08-06T07:11:56.686Z,30.74
2018-08-06T07:14:25.429Z,30.42
2018-08-06T07:16:54.564Z,30.55
2018-08-06T07:19:24.043Z,30.57
2018-08-06T07:21:53.021Z,30.77
2018-08-06T07:24:22.720Z,30.82
2018-08-06T07:26:52.561Z,31.08
2018-08-06T07:29:21.575Z,31.36
2018-08-06T07:31:50.444Z,31.40
2018-08-06T07:34:19.401Z,31.50
2018-08-06T07:36:48.291Z,31.75
2018-08-06T07:39:18.002Z,31.91
2018-08-06T07:41:46.856Z,31.66
2018-08-06T07:44:16.862Z,31.87
2018-08-06T07:46:45.791Z,31.91
2018-08-06T07:49:14.828Z,32.22
2018-08-06T07:51:43.628Z,32.27
2018-08-06T07:54:12.454Z,32.31
2018-08-06T07:56:42.041Z,32.51
2018-08-06T07:59:14.539Z,32.54
2018-08-06T08:01:43.518Z,32.71
2018-08-06T08:04:12.606Z,32.72
2018-08-06T08:06:42.130Z,33.09
2018-08-06T08:09:12.956Z,33.41
2018-08-06T08:11:41.996Z,33.25
2018-08-06T08:14:11.359Z,33.21
2018-08-06T08:16:40.125Z,33.70
2018-08-06T08:19:09.121Z,33.68
2018-08-06T08:21:37.957Z,33.78
2018-08-06T08:24:07.031Z,33.66
2018-08-06T08:26:36.581Z,34.07
2018-08-06T08:29:05.858Z,33.95
2018-08-06T08:31:34.884Z,33.73
2018-08-06T08:34:04.175Z,33.60
2018-08-06T08:36:34.587Z,34.52
2018-08-06T08:39:04.187Z,34.60
2018-08-06T08:41:34.217Z,34.69
2018-08-06T08:44:03.116Z,34.68
2018-08-06T08:46:33.242Z,34.63
2018-08-06T08:49:03.530Z,34.88
2018-08-06T08:51:32.310Z,34.63
2018-08-06T08:54:01.714Z,34.83
2018-08-06T08:56:30.861Z,34.65
2018-08-06T08:59:00.074Z,34.89
2018-08-06T09:01:29.326Z,35.14
2018-08-06T09:03:58.685Z,35.25
2018-08-06T09:06:28.527Z,35.09
2018-08-06T09:08:58.296Z,35.23
2018-08-06T09:11:27.249Z,35.20
2018-08-06T09:13:56.048Z,35.15
2018-08-06T09:16:25.675Z,35.63
2018-08-06T09:18:54.458Z,35.93
2018-08-06T09:21:23.444Z,35.95
2018-08-06T09:23:53.150Z,35.84
2018-08-06T09:26:22.892Z,36.04
2018-08-06T09:28:52.973Z,35.56
2018-08-06T09:31:23.098Z,35.34
2018-08-06T09:33:51.822Z,35.78
2018-08-06T09:36:20.568Z,35.98
2018-08-06T09:38:49.424Z,36.12
2018-08-06T09:41:18.228Z,36.42
2018-08-06T09:43:47.274Z,36.32
2018-08-06T09:46:16.132Z,36.36
2018-08-06T09:48:45.162Z,36.46
2018-08-06T09:51:13.965Z,36.52
2018-08-06T09:53:43.544Z,36.80
2018-08-06T09:56:12.585Z,37.02
2018-08-06T09:58:41.322Z,36.81
2018-08-06T10:01:16.435Z,36.79
2018-08-06T10:03:45.569Z,36.94
2018-08-06T10:06:14.595Z,36.63
2018-08-06T10:08:45.125Z,36.94
2018-08-06T10:11:15.892Z,36.84
2018-08-06T10:13:45.448Z,37.32
2018-08-06T10:16:14.835Z,36.79
2018-08-06T10:18:45.654Z,36.62
2018-08-06T10:21:14.870Z,36.67
2018-08-06T10:23:44.460Z,37.05
2018-08-06T10:26:13.391Z,37.31
2018-08-06T10:28:42.921Z,37.78
2018-08-06T10:31:12.113Z,37.72
2018-08-06T10:33:43.055Z,38.01
2018-08-06T10:36:13.639Z,37.59
2018-08-06T10:38:44.639Z,37.99
2018-08-06T10:41:14.011Z,37.50
2018-08-06T10:43:43.550Z,37.95
2018-08-06T10:46:13.004Z,38.20
2018-08-06T10:48:42.268Z,38.39
2018-08-06T10:51:11.074Z,38.52
2018-08-06T10:53:40.103Z,38.39
2018-08-06T10:56:09.349Z,38.41
2018-08-06T10:58:38.143Z,38.53
2018-08-06T11:01:07.491Z,38.34
2018-08-06T11:03:37.322Z,38.42
2018-08-06T11:06:07.714Z,38.90
2018-08-06T11:08:36.761Z,38.88
2018-08-06T11:11:05.997Z,39.05
2018-08-06T11:13:35.716Z,38.83
2018-08-06T11:16:04.747Z,39.00
2018-08-06T11:18:35.067Z,39.07
2018-08-06T11:21:04.763Z,39.06
2018-08-06T11:23:34.680Z,38.94
2018-08-06T11:26:04.547Z,39.38
2018-08-06T11:28:34.370Z,39.53
2018-08-06T11:31:03.408Z,39.38
2018-08-06T11:33:34.296Z,39.99
2018-08-06T11:36:03.342Z,39.29
2018-08-06T11:38:32.495Z,39.93
2018-08-06T11:41:01.391Z,40.30
2018-08-06T11:43:30.177Z,40.12
2018-08-06T11:45:59.261Z,40.63
2018-08-06T11:48:27.948Z,40.64
2018-08-06T11:50:57.000Z,40.59
2018-08-06T11:53:25.909Z,40.63
2018-08-06T11:55:56.286Z,41.28
2018-08-06T11:58:25.220Z,41.03
2018-08-06T12:00:54.729Z,41.64
2018-08-06T12:03:23.563Z,42.30
2018-08-06T12:05:52.333Z,43.39
2018-08-06T12:08:21.397Z,43.52
2018-08-06T12:10:50.463Z,44.63
2018-08-06T12:13:19.317Z,45.37
2018-08-06T12:15:48.529Z,45.98
2018-08-06T12:18:17.507Z,47.44
2018-08-06T12:20:46.859Z,47.86
2018-08-06T12:23:16.055Z,49.15
2018-08-06T12:25:44.936Z,49.46
2018-08-06T12:28:13.797Z,50.69
2018-08-06T12:30:42.590Z,50.90
2018-08-06T12:33:11.616Z,51.83
2018-08-06T12:35:40.682Z,53.05
2018-08-06T12:38:09.537Z,53.23
2018-08-06T12:40:38.269Z,53.34
2018-08-06T12:43:07.247Z,51.99
2018-08-06T12:45:36.437Z,53.63
2018-08-06T12:48:05.440Z,54.43
2018-08-06T12:50:34.655Z,54.41
2018-08-06T12:53:04.270Z,55.90
2018-08-06T12:55:33.194Z,55.04
2018-08-06T12:58:02.139Z,55.80
2018-08-06T13:00:31.043Z,55.18
2018-08-06T13:03:00.044Z,55.31
2018-08-06T13:05:29.059Z,55.30
2018-08-06T13:07:58.124Z,56.55
2018-08-06T13:10:27.314Z,57.24
2018-08-06T13:12:56.290Z,57.01
2018-08-06T13:15:25.132Z,56.32
2018-08-06T13:17:54.155Z,57.70
2018-08-06T13:20:23.095Z,58.76
2018-08-06T13:22:52.722Z,59.02
2018-08-06T13:25:21.912Z,59.31
2018-08-06T13:27:50.661Z,59.01
2018-08-06T13:30:19.730Z,58.70
2018-08-06T13:32:49.197Z,58.87
2018-08-06T13:35:18.548Z,59.18
2018-08-06T13:37:53.958Z,58.54
2018-08-06T13:40:24.006Z,59.45
2018-08-06T13:42:53.450Z,58.58
2018-08-06T13:45:22.612Z,58.73
2018-08-06T13:47:51.605Z,58.92
2018-08-06T13:50:21.716Z,58.13
2018-08-06T13:52:51.335Z,58.99
2018-08-06T13:55:20.325Z,58.85
2018-08-06T13:57:49.434Z,59.34
2018-08-06T14:00:19.842Z,59.03
2018-08-06T14:02:49.925Z,59.84
2018-08-06T14:05:19.325Z,60.34
2018-08-06T14:07:49.211Z,60.16
2018-08-06T14:10:19.234Z,60.32
2018-08-06T14:12:48.542Z,60.04
2018-08-06T14:15:18.295Z,59.17
2018-08-06T14:17:47.651Z,59.03
2018-08-06T14:20:18.201Z,58.94
2018-08-06T14:22:47.486Z,59.26
2018-08-06T14:25:16.790Z,58.96
2018-08-06T14:27:46.052Z,58.69
2018-08-06T14:30:16.082Z,59.30
2018-08-06T14:32:45.500Z,60.32
2018-08-06T14:35:15.363Z,58.84
2018-08-06T14:37:44.334Z,59.06
2018-08-06T14:40:15.910Z,59.90
2018-08-06T14:42:45.023Z,57.90
2018-08-06T14:45:14.058Z,56.89
2018-08-06T14:47:43.400Z,55.34
2018-08-06T14:50:14.111Z,54.31
2018-08-06T14:52:43.176Z,55.28
2018-08-06T14:55:12.419Z,57.45
2018-08-06T14:57:42.129Z,58.45
2018-08-06T15:00:16.358Z,59.26
2018-08-06T15:02:46.029Z,59.42
2018-08-06T15:05:14.803Z,59.59
2018-08-06T15:07:44.133Z,59.91
2018-08-06T15:10:13.983Z,59.94
2018-08-06T15:12:42.924Z,58.84
2018-08-06T15:15:15.385Z,59.43
2018-08-06T15:17:44.863Z,57.78
2018-08-06T15:20:15.226Z,54.94
2018-08-06T15:22:44.276Z,56.31
2018-08-06T15:25:15.656Z,57.15
2018-08-06T15:27:44.730Z,58.02
2018-08-06T15:30:13.692Z,58.66
2018-08-06T15:32:42.455Z,58.74
2018-08-06T15:35:12.091Z,58.82
2018-08-06T15:37:42.097Z,58.65
2018-08-06T15:40:14.404Z,58.63
2018-08-06T15:42:43.416Z,58.91
2018-08-06T15:45:14.029Z,57.17
2018-08-06T15:47:43.696Z,56.45
2018-08-06T15:50:14.214Z,55.90
2018-08-06T15:52:43.337Z,56.56
2018-08-06T15:55:12.421Z,56.79
2018-08-06T15:57:42.296Z,57.03
2018-08-06T16:00:13.400Z,56.30
2018-08-06T16:02:42.444Z,56.15
2018-08-06T16:05:11.807Z,56.47
2018-08-06T16:07:41.240Z,56.66
2018-08-06T16:10:11.519Z,56.97
2018-08-06T16:12:40.354Z,56.66
2018-08-06T16:15:11.229Z,56.64
2018-08-06T16:17:41.001Z,56.60
2018-08-06T16:20:12.072Z,56.32
2018-08-06T16:22:41.556Z,55.78
2018-08-06T16:25:11.064Z,55.55
2018-08-06T16:27:40.363Z,54.28
2018-08-06T16:30:15.283Z,52.48
2018-08-06T16:32:45.207Z,51.70
2018-08-06T16:35:13.912Z,52.26
2018-08-06T16:37:42.626Z,52.78
2018-08-06T16:40:11.800Z,53.13
2018-08-06T16:42:40.568Z,53.50
2018-08-06T16:45:10.021Z,53.63
2018-08-06T16:47:39.479Z,53.59
2018-08-06T16:50:10.376Z,53.32
2018-08-06T16:52:39.311Z,52.26
2018-08-06T16:55:09.011Z,51.33
2018-08-06T16:57:38.012Z,50.93
2018-08-06T17:00:09.532Z,50.19
2018-08-06T17:02:38.258Z,49.67
2018-08-06T17:05:09.536Z,49.93
2018-08-06T17:07:38.308Z,48.94
2018-08-06T17:10:08.749Z,49.17
2018-08-06T17:12:37.634Z,48.67
2018-08-06T17:15:07.709Z,48.02
2018-08-06T17:17:37.582Z,48.88
2018-08-06T17:20:09.802Z,49.24
2018-08-06T17:22:38.616Z,48.42
2018-08-06T17:25:08.777Z,47.45
2018-08-06T17:27:38.285Z,46.42
2018-08-06T17:30:07.349Z,45.82
2018-08-06T17:32:36.722Z,45.76
2018-08-06T17:35:06.289Z,45.31
2018-08-06T17:37:35.068Z,45.17
2018-08-06T17:40:04.581Z,45.20
2018-08-06T17:42:33.428Z,44.48
2018-08-06T17:45:02.118Z,44.32
2018-08-06T17:47:31.235Z,43.73
2018-08-06T17:50:00.229Z,43.00
2018-08-06T17:52:28.932Z,42.39
2018-08-06T17:54:57.693Z,41.72
2018-08-06T17:57:26.324Z,41.30
2018-08-06T17:59:55.101Z,40.82
2018-08-06T18:02:23.930Z,40.70
2018-08-06T18:04:52.995Z,40.59
2018-08-06T18:07:21.790Z,40.39
2018-08-06T18:09:50.546Z,40.21
2018-08-06T18:12:20.619Z,39.96
2018-08-06T18:14:49.312Z,39.73
2018-08-06T18:17:19.489Z,39.44
2018-08-06T18:19:48.237Z,39.26
2018-08-06T18:22:17.434Z,39.06
2018-08-06T18:24:46.251Z,38.95
2018-08-06T18:27:15.380Z,38.70
2018-08-06T18:29:44.137Z,38.53
2018-08-06T18:32:13.099Z,38.39
2018-08-06T18:34:42.160Z,38.25
2018-08-06T18:37:10.957Z,37.98
2018-08-06T18:39:39.916Z,38.10
2018-08-06T18:42:09.060Z,37.98
2018-08-06T18:44:38.055Z,37.82
2018-08-06T18:47:10.637Z,37.78
2018-08-06T18:49:42.373Z,37.53
2018-08-06T18:52:11.389Z,37.54
2018-08-06T18:54:40.385Z,37.54
2018-08-06T18:57:11.504Z,37.35
2018-08-06T18:59:42.107Z,37.25
2018-08-06T19:02:10.922Z,37.02
2018-08-06T19:04:40.712Z,36.87
2018-08-06T19:07:09.429Z,36.73
2018-08-06T19:09:38.281Z,36.49
2018-08-06T19:12:12.147Z,36.55
2018-08-06T19:14:42.243Z,36.43
2018-08-06T19:17:11.063Z,36.33
2018-08-06T19:19:39.834Z,36.17
2018-08-06T19:22:08.582Z,36.20
2018-08-06T19:24:43.470Z,36.17
2018-08-06T19:27:12.244Z,36.13
2018-08-06T19:29:41.159Z,35.99
2018-08-06T19:32:10.101Z,35.93
2018-08-06T19:34:39.221Z,35.82
2018-08-06T19:37:13.236Z,35.83
2018-08-06T19:39:42.621Z,35.95
2018-08-06T19:42:12.222Z,35.93
2018-08-06T19:44:41.319Z,35.76
2018-08-06T19:47:11.653Z,35.65
2018-08-06T19:49:45.988Z,35.69
2018-08-06T19:52:15.766Z,35.43
2018-08-06T19:54:45.252Z,35.53
2018-08-06T19:57:14.394Z,35.41
2018-08-06T19:59:43.609Z,35.43
2018-08-06T20:02:12.913Z,34.72
2018-08-06T20:04:42.291Z,34.68
2018-08-06T20:07:11.266Z,34.23
2018-08-06T20:09:40.341Z,34.59
2018-08-06T20:12:09.160Z,34.51
2018-08-06T20:14:38.335Z,34.51
2018-08-06T20:17:07.732Z,34.03
2018-08-06T20:19:36.787Z,33.98
2018-08-06T20:22:06.583Z,33.95
2018-08-06T20:24:35.573Z,33.80
2018-08-06T20:27:05.039Z,33.72
2018-08-06T20:29:34.139Z,33.38
2018-08-06T20:32:02.886Z,33.49
2018-08-06T20:34:32.061Z,33.48
2018-08-06T20:37:00.950Z,33.18
2018-08-06T20:39:30.611Z,33.33
2018-08-06T20:41:59.569Z,33.60
2018-08-06T20:44:28.674Z,33.12
2018-08-06T20:46:59.105Z,33.34
2018-08-06T20:49:28.061Z,33.00
2018-08-06T20:51:57.322Z,33.00
2018-08-06T20:54:27.078Z,33.04
2018-08-06T20:56:56.186Z,32.86
2018-08-06T20:59:25.941Z,32.76
2018-08-06T21:01:55.010Z,32.69
2018-08-06T21:04:23.768Z,32.74
2018-08-06T21:06:53.030Z,32.88
2018-08-06T21:09:22.256Z,33.28
2018-08-06T21:11:51.205Z,33.61
2018-08-06T21:14:20.582Z,33.11
2018-08-06T21:16:50.108Z,33.14
2018-08-06T21:19:19.756Z,33.15
2018-08-06T21:21:49.221Z,32.70
2018-08-06T21:24:18.098Z,32.07
2018-08-06T21:26:47.462Z,32.56
2018-08-06T21:29:16.790Z,32.77
2018-08-06T21:31:46.065Z,32.72
2018-08-06T21:34:14.956Z,32.73
2018-08-06T21:36:43.892Z,32.06
2018-08-06T21:39:13.102Z,32.46
2018-08-06T21:41:42.106Z,32.41
2018-08-06T21:44:11.119Z,32.43
2018-08-06T21:46:39.993Z,32.19
2018-08-06T21:49:09.401Z,32.51
2018-08-06T21:54:40.729Z,33.23
2018-08-06T21:57:09.809Z,33.08
2018-08-06T21:59:38.640Z,32.66
2018-08-06T22:02:07.618Z,32.74
2018-08-06T22:04:36.542Z,32.85
2018-08-06T22:07:05.502Z,32.65
2018-08-06T22:09:34.496Z,32.98
2018-08-06T22:12:03.538Z,33.02
2018-08-06T22:14:32.371Z,32.82
2018-08-06T22:17:01.119Z,33.24
2018-08-06T22:19:30.058Z,33.29
2018-08-06T22:21:58.974Z,33.09
2018-08-06T22:24:27.825Z,32.69
2018-08-06T22:26:56.805Z,32.89
2018-08-06T22:29:25.560Z,32.89
2018-08-06T22:31:54.261Z,32.98
2018-08-06T22:34:23.061Z,32.91
2018-08-06T22:36:51.953Z,32.78
2018-08-06T22:39:20.782Z,32.44
2018-08-06T22:41:49.585Z,31.94
2018-08-06T22:44:18.403Z,32.08
2018-08-06T22:46:47.154Z,32.09
2018-08-06T22:49:15.994Z,32.45
2018-08-06T22:51:44.685Z,32.09
2018-08-06T22:54:13.485Z,32.11
2018-08-06T22:56:42.188Z,31.87
2018-08-06T22:59:10.994Z,31.69
2018-08-06T23:01:39.801Z,31.99
2018-08-06T23:04:08.698Z,31.82
2018-08-06T23:06:37.621Z,31.72
2018-08-06T23:09:09.109Z,31.62
2018-08-06T23:11:37.878Z,31.51
2018-08-06T23:14:06.696Z,31.66
2018-08-06T23:16:35.467Z,31.47
2018-08-06T23:19:04.317Z,31.94
2018-08-06T23:21:33.089Z,32.05
2018-08-06T23:24:01.831Z,31.94
2018-08-06T23:26:30.587Z,32.13
2018-08-06T23:28:59.234Z,32.00
2018-08-06T23:31:28.028Z,32.29
2018-08-06T23:33:57.033Z,32.06
2018-08-06T23:36:26.036Z,32.14
2018-08-06T23:38:54.775Z,32.06
2018-08-06T23:41:23.532Z,31.90
2018-08-06T23:43:52.169Z,31.90
2018-08-06T23:46:20.926Z,31.72
2018-08-06T23:48:49.905Z,31.73
2018-08-06T23:51:18.768Z,31.91
2018-08-06T23:53:47.482Z,32.00
2018-08-06T23:56:16.316Z,32.05
2018-08-06T23:58:44.990Z,31.65
